sensor_id;sensor_type;location;lat;lon;timestamp;P1;durP1;ratioP1;P2;durP2;ratioP2
33453;SDS011;39400;49.744;7.012;2022-09-25T00:00:56;5.90;;;3.53;;
33453;SDS011;39400;49.744;7.012;2022-09-25T00:03:25;7.82;;;4.10;;
33453;SDS011;39400;49.744;7.012;2022-09-25T00:06:05;5.38;;;3.35;;
33453;SDS011;39400;49.744;7.012;2022-09-25T00:08:37;6.15;;;3.42;;
33453;SDS011;39400;49.744;7.012;2022-09-25T00:11:07;5.93;;;4.25;;
33453;SDS011;39400;49.744;7.012;2022-09-25T00:13:36;6.05;;;4.30;;
33453;SDS011;39400;49.744;7.012;2022-09-25T00:16:05;7.78;;;4.70;;
33453;SDS011;39400;49.744;7.012;2022-09-25T00:18:34;6.53;;;4.72;;
33453;SDS011;39400;49.744;7.012;2022-09-25T00:21:20;9.88;;;5.38;;
33453;SDS011;39400;49.744;7.012;2022-09-25T00:23:47;13.13;;;6.95;;
33453;SDS011;39400;49.744;7.012;2022-09-25T00:26:15;10.50;;;5.72;;
33453;SDS011;39400;49.744;7.012;2022-09-25T00:28:42;6.30;;;4.57;;
33453;SDS011;39400;49.744;7.012;2022-09-25T00:31:10;7.68;;;5.03;;
33453;SDS011;39400;49.744;7.012;2022-09-25T00:33:38;6.22;;;4.53;;
33453;SDS011;39400;49.744;7.012;2022-09-25T00:36:06;8.50;;;5.10;;
33453;SDS011;39400;49.744;7.012;2022-09-25T00:38:35;10.15;;;5.57;;
33453;SDS011;39400;49.744;7.012;2022-09-25T00:41:04;8.93;;;4.57;;
33453;SDS011;39400;49.744;7.012;2022-09-25T00:43:42;8.57;;;4.82;;
33453;SDS011;39400;49.744;7.012;2022-09-25T00:54:09;6.70;;;4.18;;
33453;SDS011;39400;49.744;7.012;2022-09-25T00:56:42;7.72;;;4.22;;
33453;SDS011;39400;49.744;7.012;2022-09-25T00:59:13;6.82;;;4.95;;
33453;SDS011;39400;49.744;7.012;2022-09-25T01:01:43;10.20;;;4.95;;
33453;SDS011;39400;49.744;7.012;2022-09-25T01:04:11;9.05;;;5.30;;
33453;SDS011;39400;49.744;7.012;2022-09-25T01:06:40;10.15;;;6.35;;
33453;SDS011;39400;49.744;7.012;2022-09-25T01:09:07;12.55;;;8.32;;
33453;SDS011;39400;49.744;7.012;2022-09-25T01:11:34;12.52;;;8.05;;
33453;SDS011;39400;49.744;7.012;2022-09-25T01:14:02;10.15;;;7.65;;
33453;SDS011;39400;49.744;7.012;2022-09-25T01:25:42;16.13;;;8.57;;
33453;SDS011;39400;49.744;7.012;2022-09-25T01:31:40;17.05;;;8.18;;
33453;SDS011;39400;49.744;7.012;2022-09-25T01:37:25;10.32;;;7.00;;
33453;SDS011;39400;49.744;7.012;2022-09-25T01:40:16;10.45;;;7.10;;
33453;SDS011;39400;49.744;7.012;2022-09-25T01:43:00;10.55;;;7.57;;
33453;SDS011;39400;49.744;7.012;2022-09-25T01:45:35;13.60;;;8.32;;
33453;SDS011;39400;49.744;7.012;2022-09-25T01:48:09;11.00;;;7.07;;
33453;SDS011;39400;49.744;7.012;2022-09-25T01:50:49;10.43;;;6.82;;
33453;SDS011;39400;49.744;7.012;2022-09-25T01:53:24;12.38;;;8.70;;
33453;SDS011;39400;49.744;7.012;2022-09-25T01:56:00;13.82;;;8.43;;
33453;SDS011;39400;49.744;7.012;2022-09-25T01:58:37;10.82;;;7.65;;
33453;SDS011;39400;49.744;7.012;2022-09-25T02:01:09;13.18;;;7.53;;
33453;SDS011;39400;49.744;7.012;2022-09-25T02:03:41;9.10;;;6.57;;
33453;SDS011;39400;49.744;7.012;2022-09-25T02:06:14;12.20;;;6.40;;
33453;SDS011;39400;49.744;7.012;2022-09-25T02:08:47;8.60;;;5.78;;
33453;SDS011;39400;49.744;7.012;2022-09-25T02:11:20;11.00;;;7.28;;
33453;SDS011;39400;49.744;7.012;2022-09-25T02:13:53;10.20;;;6.35;;
33453;SDS011;39400;49.744;7.012;2022-09-25T02:16:27;9.35;;;5.72;;
33453;SDS011;39400;49.744;7.012;2022-09-25T02:19:00;8.98;;;5.40;;
33453;SDS011;39400;49.744;7.012;2022-09-25T02:21:53;9.05;;;6.10;;
33453;SDS011;39400;49.744;7.012;2022-09-25T02:24:32;11.52;;;6.43;;
33453;SDS011;39400;49.744;7.012;2022-09-25T02:27:05;9.45;;;7.32;;
33453;SDS011;39400;49.744;7.012;2022-09-25T02:29:32;10.00;;;7.03;;
33453;SDS011;39400;49.744;7.012;2022-09-25T02:32:10;8.77;;;6.13;;
33453;SDS011;39400;49.744;7.012;2022-09-25T02:34:40;8.85;;;6.68;;
33453;SDS011;39400;49.744;7.012;2022-09-25T02:37:09;9.32;;;7.28;;
33453;SDS011;39400;49.744;7.012;2022-09-25T02:39:46;13.05;;;8.18;;
33453;SDS011;39400;49.744;7.012;2022-09-25T02:53:48;10.65;;;7.90;;
33453;SDS011;39400;49.744;7.012;2022-09-25T02:56:22;14.35;;;9.52;;
33453;SDS011;39400;49.744;7.012;2022-09-25T02:58:51;12.55;;;8.70;;
33453;SDS011;39400;49.744;7.012;2022-09-25T03:01:22;13.10;;;10.20;;
33453;SDS011;39400;49.744;7.012;2022-09-25T03:03:52;10.32;;;7.88;;
33453;SDS011;39400;49.744;7.012;2022-09-25T03:06:23;14.60;;;9.00;;
33453;SDS011;39400;49.744;7.012;2022-09-25T03:08:52;13.98;;;10.40;;
33453;SDS011;39400;49.744;7.012;2022-09-25T03:11:23;13.45;;;9.00;;
33453;SDS011;39400;49.744;7.012;2022-09-25T03:14:01;11.52;;;7.38;;
33453;SDS011;39400;49.744;7.012;2022-09-25T03:16:49;11.98;;;8.35;;
33453;SDS011;39400;49.744;7.012;2022-09-25T03:19:18;16.40;;;10.68;;
33453;SDS011;39400;49.744;7.012;2022-09-25T03:21:45;10.80;;;8.23;;
33453;SDS011;39400;49.744;7.012;2022-09-25T03:24:13;12.27;;;7.32;;
33453;SDS011;39400;49.744;7.012;2022-09-25T03:26:41;9.45;;;6.93;;
33453;SDS011;39400;49.744;7.012;2022-09-25T03:29:10;11.57;;;7.45;;
33453;SDS011;39400;49.744;7.012;2022-09-25T03:31:38;13.30;;;7.93;;
33453;SDS011;39400;49.744;7.012;2022-09-25T03:34:07;8.35;;;6.32;;
33453;SDS011;39400;49.744;7.012;2022-09-25T03:36:35;9.32;;;7.25;;
33453;SDS011;39400;49.744;7.012;2022-09-25T03:39:02;8.95;;;6.47;;
33453;SDS011;39400;49.744;7.012;2022-09-25T03:41:30;10.27;;;7.07;;
33453;SDS011;39400;49.744;7.012;2022-09-25T03:44:00;10.48;;;7.13;;
33453;SDS011;39400;49.744;7.012;2022-09-25T03:46:28;10.80;;;7.85;;
33453;SDS011;39400;49.744;7.012;2022-09-25T03:48:57;10.98;;;7.65;;
33453;SDS011;39400;49.744;7.012;2022-09-25T03:51:25;7.70;;;5.82;;
33453;SDS011;39400;49.744;7.012;2022-09-25T03:53:53;11.38;;;7.68;;
33453;SDS011;39400;49.744;7.012;2022-09-25T03:56:22;10.50;;;7.25;;
33453;SDS011;39400;49.744;7.012;2022-09-25T03:58:51;11.52;;;8.30;;
33453;SDS011;39400;49.744;7.012;2022-09-25T04:01:22;11.65;;;8.10;;
33453;SDS011;39400;49.744;7.012;2022-09-25T04:03:50;13.40;;;8.85;;
33453;SDS011;39400;49.744;7.012;2022-09-25T04:06:18;12.40;;;8.80;;
33453;SDS011;39400;49.744;7.012;2022-09-25T04:08:49;12.23;;;9.32;;
33453;SDS011;39400;49.744;7.012;2022-09-25T04:11:18;14.05;;;9.60;;
33453;SDS011;39400;49.744;7.012;2022-09-25T04:13:48;14.02;;;8.57;;
33453;SDS011;39400;49.744;7.012;2022-09-25T04:16:15;15.13;;;9.63;;
33453;SDS011;39400;49.744;7.012;2022-09-25T04:18:42;16.48;;;11.25;;
33453;SDS011;39400;49.744;7.012;2022-09-25T04:21:11;15.38;;;11.60;;
33453;SDS011;39400;49.744;7.012;2022-09-25T04:23:39;18.83;;;13.77;;
33453;SDS011;39400;49.744;7.012;2022-09-25T04:26:07;17.10;;;11.90;;
33453;SDS011;39400;49.744;7.012;2022-09-25T04:28:35;16.17;;;12.50;;
33453;SDS011;39400;49.744;7.012;2022-09-25T04:31:03;18.42;;;12.95;;
33453;SDS011;39400;49.744;7.012;2022-09-25T04:33:30;18.08;;;10.85;;
33453;SDS011;39400;49.744;7.012;2022-09-25T04:36:14;18.50;;;12.55;;
33453;SDS011;39400;49.744;7.012;2022-09-25T04:38:42;17.48;;;11.10;;
33453;SDS011;39400;49.744;7.012;2022-09-25T04:41:10;24.50;;;12.73;;
33453;SDS011;39400;49.744;7.012;2022-09-25T04:43:37;18.50;;;12.90;;
33453;SDS011;39400;49.744;7.012;2022-09-25T04:46:07;14.48;;;9.88;;
33453;SDS011;39400;49.744;7.012;2022-09-25T04:48:42;12.20;;;9.07;;
33453;SDS011;39400;49.744;7.012;2022-09-25T04:51:11;18.48;;;9.75;;
33453;SDS011;39400;49.744;7.012;2022-09-25T04:53:38;20.90;;;12.98;;
33453;SDS011;39400;49.744;7.012;2022-09-25T04:56:07;21.30;;;14.30;;
33453;SDS011;39400;49.744;7.012;2022-09-25T04:58:47;69.80;;;17.75;;
33453;SDS011;39400;49.744;7.012;2022-09-25T05:01:16;72.00;;;21.48;;
33453;SDS011;39400;49.744;7.012;2022-09-25T05:03:48;56.78;;;18.52;;
33453;SDS011;39400;49.744;7.012;2022-09-25T05:06:19;121.22;;;22.95;;
33453;SDS011;39400;49.744;7.012;2022-09-25T05:08:47;114.80;;;21.40;;
33453;SDS011;39400;49.744;7.012;2022-09-25T05:11:18;169.05;;;25.75;;
33453;SDS011;39400;49.744;7.012;2022-09-25T05:13:49;164.38;;;26.75;;
33453;SDS011;39400;49.744;7.012;2022-09-25T05:16:17;199.55;;;26.58;;
33453;SDS011;39400;49.744;7.012;2022-09-25T05:18:45;121.47;;;21.67;;
33453;SDS011;39400;49.744;7.012;2022-09-25T05:21:12;105.82;;;19.88;;
33453;SDS011;39400;49.744;7.012;2022-09-25T05:23:39;143.10;;;21.60;;
33453;SDS011;39400;49.744;7.012;2022-09-25T05:26:08;94.13;;;18.50;;
33453;SDS011;39400;49.744;7.012;2022-09-25T05:28:35;34.90;;;16.33;;
33453;SDS011;39400;49.744;7.012;2022-09-25T05:31:02;28.77;;;14.60;;
33453;SDS011;39400;49.744;7.012;2022-09-25T05:33:31;19.50;;;10.93;;
33453;SDS011;39400;49.744;7.012;2022-09-25T05:36:00;17.95;;;10.27;;
33453;SDS011;39400;49.744;7.012;2022-09-25T05:38:30;19.85;;;9.48;;
33453;SDS011;39400;49.744;7.012;2022-09-25T05:41:01;13.10;;;8.65;;
33453;SDS011;39400;49.744;7.012;2022-09-25T05:43:32;10.25;;;6.20;;
33453;SDS011;39400;49.744;7.012;2022-09-25T05:46:00;11.40;;;7.40;;
33453;SDS011;39400;49.744;7.012;2022-09-25T05:48:28;13.75;;;7.00;;
33453;SDS011;39400;49.744;7.012;2022-09-25T05:50:55;11.20;;;7.22;;
33453;SDS011;39400;49.744;7.012;2022-09-25T05:53:23;9.70;;;6.38;;
33453;SDS011;39400;49.744;7.012;2022-09-25T05:55:51;6.70;;;4.50;;
33453;SDS011;39400;49.744;7.012;2022-09-25T05:58:20;5.78;;;3.65;;
33453;SDS011;39400;49.744;7.012;2022-09-25T06:00:47;6.95;;;4.88;;
33453;SDS011;39400;49.744;7.012;2022-09-25T06:03:14;8.43;;;5.93;;
33453;SDS011;39400;49.744;7.012;2022-09-25T06:05:42;13.02;;;8.95;;
33453;SDS011;39400;49.744;7.012;2022-09-25T06:08:12;12.18;;;7.63;;
33453;SDS011;39400;49.744;7.012;2022-09-25T06:10:40;15.40;;;9.90;;
33453;SDS011;39400;49.744;7.012;2022-09-25T06:13:07;15.02;;;10.38;;
33453;SDS011;39400;49.744;7.012;2022-09-25T06:15:35;18.10;;;13.02;;
33453;SDS011;39400;49.744;7.012;2022-09-25T06:18:04;19.80;;;14.00;;
33453;SDS011;39400;49.744;7.012;2022-09-25T06:20:33;18.33;;;12.93;;
33453;SDS011;39400;49.744;7.012;2022-09-25T06:23:00;19.85;;;13.48;;
33453;SDS011;39400;49.744;7.012;2022-09-25T06:25:29;20.85;;;13.07;;
33453;SDS011;39400;49.744;7.012;2022-09-25T06:27:59;20.63;;;14.38;;
33453;SDS011;39400;49.744;7.012;2022-09-25T06:30:31;22.92;;;14.35;;
33453;SDS011;39400;49.744;7.012;2022-09-25T06:33:00;16.73;;;11.55;;
33453;SDS011;39400;49.744;7.012;2022-09-25T06:35:29;21.75;;;14.65;;
33453;SDS011;39400;49.744;7.012;2022-09-25T06:37:59;22.83;;;13.52;;
33453;SDS011;39400;49.744;7.012;2022-09-25T06:40:27;22.67;;;13.50;;
33453;SDS011;39400;49.744;7.012;2022-09-25T06:42:58;19.45;;;12.85;;
33453;SDS011;39400;49.744;7.012;2022-09-25T06:45:29;13.65;;;9.18;;
33453;SDS011;39400;49.744;7.012;2022-09-25T06:48:02;14.13;;;10.00;;
33453;SDS011;39400;49.744;7.012;2022-09-25T06:50:47;17.85;;;10.75;;
33453;SDS011;39400;49.744;7.012;2022-09-25T06:53:18;17.13;;;10.55;;
33453;SDS011;39400;49.744;7.012;2022-09-25T06:55:46;14.93;;;10.48;;
33453;SDS011;39400;49.744;7.012;2022-09-25T06:58:17;18.75;;;12.48;;
33453;SDS011;39400;49.744;7.012;2022-09-25T07:00:47;16.77;;;10.60;;
33453;SDS011;39400;49.744;7.012;2022-09-25T07:03:15;18.92;;;11.25;;
33453;SDS011;39400;49.744;7.012;2022-09-25T07:06:01;15.20;;;9.45;;
33453;SDS011;39400;49.744;7.012;2022-09-25T07:08:30;12.80;;;8.90;;
33453;SDS011;39400;49.744;7.012;2022-09-25T07:10:57;15.18;;;9.02;;
33453;SDS011;39400;49.744;7.012;2022-09-25T07:13:25;11.43;;;7.30;;
33453;SDS011;39400;49.744;7.012;2022-09-25T07:18:23;11.60;;;6.72;;
33453;SDS011;39400;49.744;7.012;2022-09-25T07:20:52;9.98;;;6.57;;
33453;SDS011;39400;49.744;7.012;2022-09-25T07:23:20;8.82;;;5.72;;
33453;SDS011;39400;49.744;7.012;2022-09-25T07:25:48;7.85;;;4.97;;
33453;SDS011;39400;49.744;7.012;2022-09-25T07:28:15;5.70;;;3.58;;
33453;SDS011;39400;49.744;7.012;2022-09-25T07:30:45;8.10;;;4.45;;
33453;SDS011;39400;49.744;7.012;2022-09-25T07:33:12;5.53;;;3.75;;
33453;SDS011;39400;49.744;7.012;2022-09-25T07:35:39;5.85;;;3.47;;
33453;SDS011;39400;49.744;7.012;2022-09-25T07:38:06;5.22;;;3.30;;
33453;SDS011;39400;49.744;7.012;2022-09-25T07:40:33;6.05;;;3.67;;
33453;SDS011;39400;49.744;7.012;2022-09-25T07:43:01;6.40;;;3.80;;
33453;SDS011;39400;49.744;7.012;2022-09-25T07:45:29;6.43;;;3.38;;
33453;SDS011;39400;49.744;7.012;2022-09-25T07:47:57;5.20;;;2.97;;
33453;SDS011;39400;49.744;7.012;2022-09-25T07:52:54;4.72;;;3.28;;
33453;SDS011;39400;49.744;7.012;2022-09-25T07:55:21;8.30;;;4.00;;
33453;SDS011;39400;49.744;7.012;2022-09-25T07:57:48;4.95;;;3.42;;
33453;SDS011;39400;49.744;7.012;2022-09-25T08:00:16;4.70;;;3.33;;
33453;SDS011;39400;49.744;7.012;2022-09-25T08:02:43;5.28;;;3.13;;
33453;SDS011;39400;49.744;7.012;2022-09-25T08:05:11;4.97;;;3.40;;
33453;SDS011;39400;49.744;7.012;2022-09-25T08:07:38;4.53;;;3.10;;
33453;SDS011;39400;49.744;7.012;2022-09-25T08:10:05;4.63;;;3.25;;
33453;SDS011;39400;49.744;7.012;2022-09-25T08:12:32;4.28;;;2.67;;
33453;SDS011;39400;49.744;7.012;2022-09-25T08:15:00;4.05;;;2.55;;
33453;SDS011;39400;49.744;7.012;2022-09-25T08:17:27;4.03;;;2.83;;
33453;SDS011;39400;49.744;7.012;2022-09-25T08:19:57;3.78;;;2.75;;
33453;SDS011;39400;49.744;7.012;2022-09-25T08:22:24;3.53;;;2.45;;
33453;SDS011;39400;49.744;7.012;2022-09-25T08:24:51;3.45;;;2.75;;
33453;SDS011;39400;49.744;7.012;2022-09-25T08:27:19;5.10;;;2.63;;
33453;SDS011;39400;49.744;7.012;2022-09-25T08:29:46;4.28;;;3.03;;
33453;SDS011;39400;49.744;7.012;2022-09-25T08:32:13;4.03;;;2.20;;
33453;SDS011;39400;49.744;7.012;2022-09-25T08:34:40;3.85;;;2.65;;
33453;SDS011;39400;49.744;7.012;2022-09-25T08:37:08;4.03;;;2.58;;
33453;SDS011;39400;49.744;7.012;2022-09-25T08:39:36;2.97;;;2.10;;
33453;SDS011;39400;49.744;7.012;2022-09-25T08:42:03;2.00;;;1.52;;
33453;SDS011;39400;49.744;7.012;2022-09-25T08:44:37;2.50;;;1.70;;
33453;SDS011;39400;49.744;7.012;2022-09-25T08:47:29;1.67;;;1.30;;
33453;SDS011;39400;49.744;7.012;2022-09-25T08:50:18;2.15;;;1.58;;
33453;SDS011;39400;49.744;7.012;2022-09-25T08:52:49;2.65;;;1.65;;
33453;SDS011;39400;49.744;7.012;2022-09-25T08:55:26;1.90;;;1.35;;
33453;SDS011;39400;49.744;7.012;2022-09-25T08:58:19;2.50;;;1.38;;
33453;SDS011;39400;49.744;7.012;2022-09-25T09:00:53;1.80;;;1.25;;
33453;SDS011;39400;49.744;7.012;2022-09-25T09:03:32;2.20;;;1.50;;
33453;SDS011;39400;49.744;7.012;2022-09-25T09:06:06;1.55;;;1.13;;
33453;SDS011;39400;49.744;7.012;2022-09-25T09:08:38;0.60;;;0.60;;
33453;SDS011;39400;49.744;7.012;2022-09-25T09:11:12;1.45;;;1.20;;
33453;SDS011;39400;49.744;7.012;2022-09-25T09:18:53;1.13;;;0.75;;
33453;SDS011;39400;49.744;7.012;2022-09-25T09:21:27;0.50;;;0.50;;
33453;SDS011;39400;49.744;7.012;2022-09-25T09:24:30;1.08;;;0.50;;
33453;SDS011;39400;49.744;7.012;2022-09-25T09:38:37;0.80;;;0.57;;
33453;SDS011;39400;49.744;7.012;2022-09-25T09:41:30;0.60;;;0.60;;
33453;SDS011;39400;49.744;7.012;2022-09-25T09:54:42;0.88;;;0.60;;
33453;SDS011;39400;49.744;7.012;2022-09-25T09:57:18;0.68;;;0.68;;
33453;SDS011;39400;49.744;7.012;2022-09-25T09:59:51;0.70;;;0.70;;
33453;SDS011;39400;49.744;7.012;2022-09-25T10:05:27;0.60;;;0.60;;
33453;SDS011;39400;49.744;7.012;2022-09-25T10:07:57;1.73;;;0.80;;
33453;SDS011;39400;49.744;7.012;2022-09-25T10:10:34;0.90;;;0.70;;
33453;SDS011;39400;49.744;7.012;2022-09-25T10:13:19;0.90;;;0.80;;
33453;SDS011;39400;49.744;7.012;2022-09-25T10:15:52;0.60;;;0.60;;
33453;SDS011;39400;49.744;7.012;2022-09-25T10:18:25;1.00;;;0.90;;
33453;SDS011;39400;49.744;7.012;2022-09-25T10:20:58;2.60;;;1.27;;
33453;SDS011;39400;49.744;7.012;2022-09-25T10:23:35;1.02;;;0.88;;
33453;SDS011;39400;49.744;7.012;2022-09-25T10:28:51;1.92;;;1.70;;
33453;SDS011;39400;49.744;7.012;2022-09-25T10:31:18;1.58;;;1.27;;
33453;SDS011;39400;49.744;7.012;2022-09-25T10:33:59;2.33;;;1.70;;
33453;SDS011;39400;49.744;7.012;2022-09-25T10:36:40;4.53;;;1.60;;
33453;SDS011;39400;49.744;7.012;2022-09-25T10:39:23;3.40;;;1.35;;
33453;SDS011;39400;49.744;7.012;2022-09-25T10:45:13;3.10;;;2.35;;
33453;SDS011;39400;49.744;7.012;2022-09-25T10:47:52;4.03;;;2.10;;
33453;SDS011;39400;49.744;7.012;2022-09-25T10:50:38;2.90;;;2.30;;
33453;SDS011;39400;49.744;7.012;2022-09-25T10:53:05;5.55;;;2.13;;
33453;SDS011;39400;49.744;7.012;2022-09-25T10:55:52;3.13;;;2.00;;
33453;SDS011;39400;49.744;7.012;2022-09-25T10:58:31;2.60;;;1.90;;
33453;SDS011;39400;49.744;7.012;2022-09-25T11:01:03;4.38;;;2.17;;
33453;SDS011;39400;49.744;7.012;2022-09-25T11:03:36;4.35;;;2.33;;
33453;SDS011;39400;49.744;7.012;2022-09-25T11:08:40;6.68;;;3.70;;
33453;SDS011;39400;49.744;7.012;2022-09-25T11:11:08;9.32;;;3.85;;
33453;SDS011;39400;49.744;7.012;2022-09-25T11:13:45;5.45;;;3.10;;
33453;SDS011;39400;49.744;7.012;2022-09-25T11:16:14;3.83;;;2.50;;
33453;SDS011;39400;49.744;7.012;2022-09-25T11:18:42;5.65;;;3.30;;
33453;SDS011;39400;49.744;7.012;2022-09-25T11:23:58;5.95;;;3.03;;
33453;SDS011;39400;49.744;7.012;2022-09-25T11:26:37;5.53;;;3.05;;
33453;SDS011;39400;49.744;7.012;2022-09-25T11:29:11;5.43;;;3.47;;
33453;SDS011;39400;49.744;7.012;2022-09-25T11:31:45;6.90;;;3.85;;
33453;SDS011;39400;49.744;7.012;2022-09-25T11:37:17;6.43;;;3.45;;
33453;SDS011;39400;49.744;7.012;2022-09-25T11:42:50;8.63;;;4.07;;
33453;SDS011;39400;49.744;7.012;2022-09-25T11:45:36;10.52;;;4.25;;
33453;SDS011;39400;49.744;7.012;2022-09-25T11:48:12;4.40;;;3.28;;
33453;SDS011;39400;49.744;7.012;2022-09-25T11:51:07;5.32;;;3.25;;
33453;SDS011;39400;49.744;7.012;2022-09-25T11:57:33;9.30;;;4.28;;
33453;SDS011;39400;49.744;7.012;2022-09-25T12:08:26;6.38;;;4.03;;
33453;SDS011;39400;49.744;7.012;2022-09-25T12:16:24;7.38;;;4.50;;
33453;SDS011;39400;49.744;7.012;2022-09-25T12:21:35;8.57;;;4.82;;
33453;SDS011;39400;49.744;7.012;2022-09-25T12:24:30;7.20;;;3.78;;
33453;SDS011;39400;49.744;7.012;2022-09-25T12:27:07;11.00;;;5.00;;
33453;SDS011;39400;49.744;7.012;2022-09-25T12:41:01;6.10;;;2.60;;
33453;SDS011;39400;49.744;7.012;2022-09-25T12:43:41;12.23;;;3.30;;
33453;SDS011;39400;49.744;7.012;2022-09-25T12:51:21;7.28;;;2.90;;
33453;SDS011;39400;49.744;7.012;2022-09-25T12:53:58;5.55;;;1.90;;
33453;SDS011;39400;49.744;7.012;2022-09-25T12:56:31;5.07;;;1.80;;
33453;SDS011;39400;49.744;7.012;2022-09-25T13:07:21;5.10;;;1.90;;
33453;SDS011;39400;49.744;7.012;2022-09-25T13:09:57;8.02;;;1.98;;
33453;SDS011;39400;49.744;7.012;2022-09-25T13:12:33;6.32;;;1.80;;
33453;SDS011;39400;49.744;7.012;2022-09-25T13:15:06;6.28;;;2.15;;
33453;SDS011;39400;49.744;7.012;2022-09-25T13:17:38;4.60;;;2.38;;
33453;SDS011;39400;49.744;7.012;2022-09-25T13:23:35;4.50;;;1.77;;
33453;SDS011;39400;49.744;7.012;2022-09-25T13:28:31;4.93;;;2.08;;
33453;SDS011;39400;49.744;7.012;2022-09-25T13:31:10;5.43;;;1.70;;
33453;SDS011;39400;49.744;7.012;2022-09-25T13:33:43;9.25;;;2.28;;
33453;SDS011;39400;49.744;7.012;2022-09-25T13:36:25;8.63;;;2.70;;
33453;SDS011;39400;49.744;7.012;2022-09-25T13:39:21;7.30;;;2.25;;
33453;SDS011;39400;49.744;7.012;2022-09-25T13:42:21;4.93;;;2.20;;
33453;SDS011;39400;49.744;7.012;2022-09-25T13:44:58;8.15;;;2.30;;
33453;SDS011;39400;49.744;7.012;2022-09-25T13:55:16;4.10;;;2.40;;
33453;SDS011;39400;49.744;7.012;2022-09-25T14:02:59;8.15;;;2.13;;
33453;SDS011;39400;49.744;7.012;2022-09-25T14:05:29;5.22;;;2.22;;
33453;SDS011;39400;49.744;7.012;2022-09-25T14:08:13;4.75;;;1.90;;
33453;SDS011;39400;49.744;7.012;2022-09-25T14:10:43;5.60;;;2.97;;
33453;SDS011;39400;49.744;7.012;2022-09-25T14:13:13;7.32;;;2.22;;
33453;SDS011;39400;49.744;7.012;2022-09-25T14:15:44;6.20;;;2.50;;
33453;SDS011;39400;49.744;7.012;2022-09-25T14:18:15;6.97;;;2.17;;
33453;SDS011;39400;49.744;7.012;2022-09-25T14:21:02;4.38;;;2.47;;
33453;SDS011;39400;49.744;7.012;2022-09-25T14:23:33;6.80;;;1.75;;
33453;SDS011;39400;49.744;7.012;2022-09-25T14:26:23;7.50;;;1.70;;
33453;SDS011;39400;49.744;7.012;2022-09-25T14:28:53;6.28;;;2.15;;
33453;SDS011;39400;49.744;7.012;2022-09-25T14:34:09;9.85;;;2.65;;
33453;SDS011;39400;49.744;7.012;2022-09-25T14:39:50;8.23;;;1.60;;
33453;SDS011;39400;49.744;7.012;2022-09-25T14:47:49;5.10;;;1.80;;
33453;SDS011;39400;49.744;7.012;2022-09-25T14:50:23;7.10;;;2.10;;
33453;SDS011;39400;49.744;7.012;2022-09-25T14:52:56;6.78;;;2.13;;
33453;SDS011;39400;49.744;7.012;2022-09-25T14:55:31;8.65;;;2.20;;
33453;SDS011;39400;49.744;7.012;2022-09-25T14:58:02;4.10;;;1.50;;
33453;SDS011;39400;49.744;7.012;2022-09-25T15:00:34;10.80;;;2.08;;
33453;SDS011;39400;49.744;7.012;2022-09-25T15:03:11;3.60;;;1.50;;
33453;SDS011;39400;49.744;7.012;2022-09-25T15:05:44;6.60;;;1.77;;
33453;SDS011;39400;49.744;7.012;2022-09-25T15:08:21;6.55;;;1.65;;
33453;SDS011;39400;49.744;7.012;2022-09-25T15:11:02;8.05;;;2.17;;
33453;SDS011;39400;49.744;7.012;2022-09-25T15:13:37;6.70;;;1.80;;
33453;SDS011;39400;49.744;7.012;2022-09-25T15:16:05;6.38;;;2.00;;
33453;SDS011;39400;49.744;7.012;2022-09-25T15:18:55;8.98;;;3.58;;
33453;SDS011;39400;49.744;7.012;2022-09-25T15:21:28;5.22;;;2.35;;
33453;SDS011;39400;49.744;7.012;2022-09-25T15:23:58;7.93;;;3.03;;
33453;SDS011;39400;49.744;7.012;2022-09-25T15:26:29;4.78;;;1.42;;
33453;SDS011;39400;49.744;7.012;2022-09-25T15:28:58;6.38;;;2.22;;
33453;SDS011;39400;49.744;7.012;2022-09-25T15:31:25;8.73;;;1.90;;
33453;SDS011;39400;49.744;7.012;2022-09-25T15:34:07;4.82;;;1.88;;
33453;SDS011;39400;49.744;7.012;2022-09-25T15:36:37;18.58;;;6.28;;
33453;SDS011;39400;49.744;7.012;2022-09-25T15:39:14;8.50;;;2.92;;
33453;SDS011;39400;49.744;7.012;2022-09-25T15:41:43;6.25;;;2.00;;
33453;SDS011;39400;49.744;7.012;2022-09-25T15:44:12;4.85;;;1.70;;
33453;SDS011;39400;49.744;7.012;2022-09-25T15:46:53;7.15;;;1.40;;
33453;SDS011;39400;49.744;7.012;2022-09-25T15:49:38;5.97;;;1.83;;
33453;SDS011;39400;49.744;7.012;2022-09-25T15:52:18;7.22;;;1.35;;
33453;SDS011;39400;49.744;7.012;2022-09-25T15:54:49;12.18;;;2.00;;
33453;SDS011;39400;49.744;7.012;2022-09-25T15:57:23;4.45;;;1.42;;
33453;SDS011;39400;49.744;7.012;2022-09-25T15:59:53;5.30;;;1.48;;
33453;SDS011;39400;49.744;7.012;2022-09-25T16:02:40;7.03;;;1.50;;
33453;SDS011;39400;49.744;7.012;2022-09-25T16:05:34;7.70;;;1.52;;
33453;SDS011;39400;49.744;7.012;2022-09-25T16:11:03;3.83;;;1.45;;
33453;SDS011;39400;49.744;7.012;2022-09-25T16:13:46;4.40;;;1.70;;
33453;SDS011;39400;49.744;7.012;2022-09-25T16:16:24;6.88;;;3.08;;
33453;SDS011;39400;49.744;7.012;2022-09-25T16:18:57;6.82;;;1.75;;
33453;SDS011;39400;49.744;7.012;2022-09-25T16:21:28;3.65;;;1.42;;
33453;SDS011;39400;49.744;7.012;2022-09-25T16:24:03;4.65;;;1.48;;
33453;SDS011;39400;49.744;7.012;2022-09-25T16:26:37;6.53;;;1.83;;
33453;SDS011;39400;49.744;7.012;2022-09-25T16:31:41;6.93;;;1.85;;
33453;SDS011;39400;49.744;7.012;2022-09-25T16:34:17;6.07;;;1.98;;
33453;SDS011;39400;49.744;7.012;2022-09-25T16:36:57;5.00;;;1.65;;
33453;SDS011;39400;49.744;7.012;2022-09-25T16:39:35;6.43;;;1.80;;
33453;SDS011;39400;49.744;7.012;2022-09-25T16:42:37;8.18;;;2.08;;
33453;SDS011;39400;49.744;7.012;2022-09-25T16:45:13;5.70;;;2.17;;
33453;SDS011;39400;49.744;7.012;2022-09-25T16:47:40;7.65;;;2.10;;
33453;SDS011;39400;49.744;7.012;2022-09-25T16:50:14;6.20;;;2.58;;
33453;SDS011;39400;49.744;7.012;2022-09-25T16:52:43;6.07;;;2.03;;
33453;SDS011;39400;49.744;7.012;2022-09-25T16:55:29;8.13;;;3.20;;
33453;SDS011;39400;49.744;7.012;2022-09-25T16:57:58;9.35;;;3.22;;
33453;SDS011;39400;49.744;7.012;2022-09-25T17:00:28;7.15;;;3.80;;
33453;SDS011;39400;49.744;7.012;2022-09-25T17:02:55;10.30;;;3.70;;
33453;SDS011;39400;49.744;7.012;2022-09-25T17:05:24;5.05;;;3.25;;
33453;SDS011;39400;49.744;7.012;2022-09-25T17:07:54;3.53;;;2.70;;
33453;SDS011;39400;49.744;7.012;2022-09-25T17:10:24;4.53;;;1.98;;
33453;SDS011;39400;49.744;7.012;2022-09-25T17:12:55;5.55;;;2.05;;
33453;SDS011;39400;49.744;7.012;2022-09-25T17:15:31;4.55;;;2.10;;
33453;SDS011;39400;49.744;7.012;2022-09-25T17:18:01;9.65;;;2.10;;
33453;SDS011;39400;49.744;7.012;2022-09-25T17:20:32;4.10;;;1.73;;
33453;SDS011;39400;49.744;7.012;2022-09-25T17:23:00;6.50;;;2.22;;
33453;SDS011;39400;49.744;7.012;2022-09-25T17:25:42;7.65;;;3.08;;
33453;SDS011;39400;49.744;7.012;2022-09-25T17:28:15;5.07;;;2.75;;
33453;SDS011;39400;49.744;7.012;2022-09-25T17:30:43;5.28;;;3.00;;
33453;SDS011;39400;49.744;7.012;2022-09-25T17:33:15;9.48;;;3.10;;
33453;SDS011;39400;49.744;7.012;2022-09-25T17:40:40;7.35;;;4.38;;
33453;SDS011;39400;49.744;7.012;2022-09-25T17:43:09;6.68;;;4.53;;
33453;SDS011;39400;49.744;7.012;2022-09-25T17:45:52;13.88;;;8.73;;
33453;SDS011;39400;49.744;7.012;2022-09-25T17:48:22;10.93;;;4.70;;
33453;SDS011;39400;49.744;7.012;2022-09-25T17:50:54;5.82;;;2.90;;
33453;SDS011;39400;49.744;7.012;2022-09-25T17:53:30;14.55;;;7.38;;
33453;SDS011;39400;49.744;7.012;2022-09-25T17:55:59;14.57;;;8.25;;
33453;SDS011;39400;49.744;7.012;2022-09-25T17:58:28;16.15;;;6.88;;
33453;SDS011;39400;49.744;7.012;2022-09-25T18:00:56;13.15;;;6.07;;
33453;SDS011;39400;49.744;7.012;2022-09-25T18:03:26;17.92;;;9.40;;
33453;SDS011;39400;49.744;7.012;2022-09-25T18:05:57;13.68;;;6.63;;